Time,TemperatureF,DewpointF,PressureIn,WindDirection,WindDirectionDegrees,WindSpeedMPH,WindSpeedGustMPH,Humidity,HourlyPrecipIn,Conditions,Clouds,dailyrainin,SoftwareType,DateUTC
2013-02-12 00:00:00,36.7,30.5,30.21,ENE,60,0.0,0.0,78,0.00,,SKC,0.00,VWS V14.01,2013-02-12 08:00:00,
2013-02-12 00:05:00,36.7,30.5,30.21,ENE,60,0.0,0.0,78,0.00,,SKC,0.00,VWS V14.01,2013-02-12 08:05:00,
2013-02-12 00:15:00,36.9,30.7,30.21,ENE,60,0.0,0.0,78,0.00,,SKC,0.00,VWS V14.01,2013-02-12 08:15:00,
2013-02-12 00:20:00,36.7,30.5,30.21,ENE,60,2.0,2.0,78,0.00,,SKC,0.00,VWS V14.01,2013-02-12 08:20:00,
2013-02-12 00:25:00,36.6,30.4,30.21,ENE,60,0.0,2.0,78,0.00,,SKC,0.00,VWS V14.01,2013-02-12 08:25:00,
2013-02-12 00:30:00,36.6,30.7,30.22,ENE,60,0.0,0.0,79,0.00,,SKC,0.00,VWS V14.01,2013-02-12 08:30:00,
2013-02-12 00:35:00,36.6,30.4,30.22,ENE,60,0.0,0.0,78,0.00,,SKC,0.00,VWS V14.01,2013-02-12 08:35:00,
2013-02-12 00:40:00,36.3,30.1,30.22,ENE,60,0.0,0.0,78,0.00,,SKC,0.00,VWS V14.01,2013-02-12 08:40:00,
2013-02-12 00:45:00,36.2,30.3,30.22,ENE,60,0.0,0.0,79,0.00,,SKC,0.00,VWS V14.01,2013-02-12 08:45:00,
2013-02-12 00:54:00,36.0,30.1,30.22,ENE,60,0.0,0.0,79,0.00,,SKC,0.00,VWS V14.01,2013-02-12 08:54:00,
2013-02-12 00:59:00,35.9,30.3,30.22,ENE,60,0.0,1.0,80,0.00,,SKC,0.00,VWS V14.01,2013-02-12 08:59:00,
2013-02-12 01:05:00,35.9,30.3,30.22,ENE,60,0.0,0.0,80,0.00,,SKC,0.00,VWS V14.01,2013-02-12 09:05:00,
2013-02-12 01:10:00,35.9,30.3,30.22,ENE,60,0.0,0.0,80,0.00,,SKC,0.00,VWS V14.01,2013-02-12 09:10:00,
2013-02-12 01:19:00,35.9,30.3,30.22,ENE,60,0.0,0.0,80,0.00,,SKC,0.00,VWS V14.01,2013-02-12 09:19:00,
2013-02-12 01:25:00,35.9,30.3,30.22,ENE,60,0.0,0.0,80,0.00,,SKC,0.00,VWS V14.01,2013-02-12 09:25:00,
2013-02-12 01:30:00,35.9,30.3,30.22,ENE,60,0.0,0.0,80,0.00,,SKC,0.00,VWS V14.01,2013-02-12 09:30:00,
2013-02-12 01:35:00,35.9,30.3,30.22,ENE,60,0.0,0.0,80,0.00,,SKC,0.00,VWS V14.01,2013-02-12 09:35:00,
2013-02-12 01:45:00,35.6,30.0,30.22,ENE,60,1.0,2.0,80,0.00,,SKC,0.00,VWS V14.01,2013-02-12 09:45:00,
2013-02-12 01:50:00,35.4,29.9,30.22,ENE,60,0.0,1.0,80,0.00,,SKC,0.00,VWS V14.01,2013-02-12 09:50:00,
2013-02-12 02:00:00,35.3,30.1,30.23,ENE,60,0.0,0.0,81,0.00,,SKC,0.00,VWS V14.01,2013-02-12 10:00:00,
2013-02-12 02:05:00,35.2,30.0,30.23,ENE,60,0.0,0.0,81,0.00,,SKC,0.00,VWS V14.01,2013-02-12 10:05:00,
2013-02-12 02:10:00,35.2,30.0,30.23,ENE,60,0.0,0.0,81,0.00,,SKC,0.00,VWS V14.01,2013-02-12 10:10:00,
2013-02-12 02:15:00,35.1,29.9,30.23,ENE,60,0.0,1.0,81,0.00,,SKC,0.00,VWS V14.01,2013-02-12 10:15:00,
2013-02-12 02:24:00,35.2,30.0,30.24,ENE,60,0.0,1.0,81,0.00,,SKC,0.00,VWS V14.01,2013-02-12 10:24:00,
2013-02-12 02:30:00,35.1,29.9,30.24,ENE,60,0.0,1.0,81,0.00,,SKC,0.00,VWS V14.01,2013-02-12 10:30:00,
2013-02-12 02:35:00,35.2,30.3,30.24,ENE,60,0.0,0.0,82,0.00,,SKC,0.00,VWS V14.01,2013-02-12 10:35:00,
2013-02-12 02:40:00,35.3,30.4,30.24,ENE,60,0.0,0.0,82,0.00,,SKC,0.00,VWS V14.01,2013-02-12 10:40:00,
2013-02-12 02:50:00,35.2,30.3,30.24,ENE,60,0.0,0.0,82,0.00,,SKC,0.00,VWS V14.01,2013-02-12 10:50:00,
2013-02-12 02:55:00,35.1,30.2,30.24,ENE,60,0.0,0.0,82,0.00,,SKC,0.00,VWS V14.01,2013-02-12 10:55:00,
2013-02-12 03:00:00,35.0,30.1,30.24,ENE,60,0.0,0.0,82,0.00,,SKC,0.00,VWS V14.01,2013-02-12 11:00:00,
2013-02-12 03:10:00,34.7,30.1,30.24,ENE,60,0.0,0.0,83,0.00,,SKC,0.00,VWS V14.01,2013-02-12 11:10:00,
2013-02-12 03:15:00,34.6,30.0,30.24,ENE,60,0.0,0.0,83,0.00,,SKC,0.00,VWS V14.01,2013-02-12 11:15:00,
2013-02-12 03:25:00,34.4,29.8,30.24,ENE,60,0.0,1.0,83,0.00,,SKC,0.00,VWS V14.01,2013-02-12 11:25:00,
2013-02-12 03:34:00,34.4,30.1,30.24,ENE,60,0.0,0.0,84,0.00,,SKC,0.00,VWS V14.01,2013-02-12 11:34:00,
2013-02-12 03:39:00,34.3,30.0,30.24,ENE,60,0.0,1.0,84,0.00,,SKC,0.00,VWS V14.01,2013-02-12 11:39:00,
2013-02-12 03:45:00,34.1,29.8,30.25,ENE,60,0.0,0.0,84,0.00,,SKC,0.00,VWS V14.01,2013-02-12 11:45:00,
2013-02-12 03:50:00,34.0,29.7,30.25,ENE,60,0.0,0.0,84,0.00,,SKC,0.00,VWS V14.01,2013-02-12 11:50:00,
2013-02-12 03:55:00,33.8,29.5,30.25,ENE,60,0.0,0.0,84,0.00,,SKC,0.00,VWS V14.01,2013-02-12 11:55:00,
2013-02-12 04:00:00,33.7,29.7,30.25,ENE,60,0.0,1.0,85,0.00,,SKC,0.00,VWS V14.01,2013-02-12 12:00:00,
2013-02-12 04:05:00,33.7,29.7,30.25,ENE,60,0.0,0.0,85,0.00,,SKC,0.00,VWS V14.01,2013-02-12 12:05:00,
2013-02-12 04:10:00,33.8,29.8,30.25,ENE,60,0.0,0.0,85,0.00,,SKC,0.00,VWS V14.01,2013-02-12 12:10:00,
2013-02-12 04:20:00,33.8,29.8,30.25,ENE,60,0.0,1.0,85,0.00,,SKC,0.00,VWS V14.01,2013-02-12 12:20:00,
2013-02-12 04:25:00,33.7,29.7,30.25,ENE,60,0.0,1.0,85,0.00,,SKC,0.00,VWS V14.01,2013-02-12 12:25:00,
2013-02-12 04:30:00,33.6,29.6,30.25,ENE,60,0.0,1.0,85,0.00,,SKC,0.00,VWS V14.01,2013-02-12 12:30:00,
2013-02-12 04:39:00,33.6,29.6,30.25,ENE,60,0.0,0.0,85,0.00,,SKC,0.00,VWS V14.01,2013-02-12 12:39:00,
2013-02-12 04:45:00,33.6,29.6,30.25,ENE,60,0.0,0.0,85,0.00,,SKC,0.00,VWS V14.01,2013-02-12 12:45:00,
2013-02-12 04:50:00,33.6,29.6,30.25,ENE,60,0.0,0.0,85,0.00,,SKC,0.00,VWS V14.01,2013-02-12 12:50:00,
2013-02-12 04:55:00,33.5,29.8,30.25,ENE,60,0.0,0.0,86,0.00,,SKC,0.00,VWS V14.01,2013-02-12 12:55:00,
2013-02-12 05:05:00,33.7,30.0,30.26,ENE,60,0.0,0.0,86,0.00,,SKC,0.00,VWS V14.01,2013-02-12 13:05:00,
2013-02-12 05:15:00,33.3,29.3,30.26,ENE,60,0.0,1.0,85,0.00,,SKC,0.00,VWS V14.01,2013-02-12 13:15:00,
2013-02-12 05:20:00,33.1,29.4,30.26,ENE,60,0.0,1.0,86,0.00,,SKC,0.00,VWS V14.01,2013-02-12 13:20:00,
2013-02-12 05:25:00,33.0,29.3,30.26,ENE,60,0.0,2.0,86,0.00,,SKC,0.00,VWS V14.01,2013-02-12 13:25:00,
2013-02-12 05:34:00,33.1,29.7,30.26,ENE,60,0.0,0.0,87,0.00,,SKC,0.00,VWS V14.01,2013-02-12 13:34:00,
2013-02-12 05:39:00,33.3,29.9,30.26,ENE,60,0.0,1.0,87,0.00,,SKC,0.00,VWS V14.01,2013-02-12 13:39:00,
2013-02-12 05:45:00,33.3,29.6,30.27,ENE,60,0.0,0.0,86,0.00,,SKC,0.00,VWS V14.01,2013-02-12 13:45:00,
2013-02-12 05:55:00,33.1,29.4,30.27,ENE,60,0.0,0.0,86,0.00,,SKC,0.00,VWS V14.01,2013-02-12 13:55:00,
2013-02-12 06:00:00,32.9,29.2,30.27,ENE,60,0.0,0.0,86,0.00,,SKC,0.00,VWS V14.01,2013-02-12 14:00:00,
2013-02-12 06:05:00,32.8,29.1,30.28,ENE,60,0.0,0.0,86,0.00,,SKC,0.00,VWS V14.01,2013-02-12 14:05:00,
2013-02-12 06:15:00,32.6,29.2,30.28,ENE,60,0.0,0.0,87,0.00,,SKC,0.00,VWS V14.01,2013-02-12 14:15:00,
2013-02-12 06:20:00,32.6,29.5,30.28,ENE,60,0.0,0.0,88,0.00,,SKC,0.00,VWS V14.01,2013-02-12 14:20:00,
2013-02-12 06:25:00,32.8,29.6,30.28,ENE,60,0.0,0.0,88,0.00,,SKC,0.00,VWS V14.01,2013-02-12 14:25:00,
2013-02-12 06:35:00,32.8,29.6,30.29,ENE,60,0.0,0.0,88,0.00,,SKC,0.00,VWS V14.01,2013-02-12 14:35:00,
2013-02-12 06:45:00,32.7,29.5,30.30,ENE,60,0.0,0.0,88,0.00,,SKC,0.00,VWS V14.01,2013-02-12 14:45:00,
2013-02-12 06:50:00,32.6,29.5,30.30,ENE,60,0.0,0.0,88,0.00,,SKC,0.00,VWS V14.01,2013-02-12 14:50:00,
2013-02-12 07:00:00,32.3,29.1,30.30,ENE,60,0.0,0.0,88,0.00,,SKC,0.00,VWS V14.01,2013-02-12 15:00:00,
2013-02-12 07:10:00,32.2,29.0,30.31,ENE,60,0.0,0.0,88,0.00,,SKC,0.00,VWS V14.01,2013-02-12 15:10:00,
2013-02-12 07:19:00,32.1,29.0,30.31,ENE,60,0.0,0.0,88,0.00,,SKC,0.00,VWS V14.01,2013-02-12 15:19:00,
2013-02-12 07:25:00,32.2,29.0,30.31,ENE,60,0.0,0.0,88,0.00,,SKC,0.00,VWS V14.01,2013-02-12 15:25:00,
2013-02-12 07:30:00,32.3,29.1,30.32,ENE,60,0.0,0.0,88,0.00,,SKC,0.00,VWS V14.01,2013-02-12 15:30:00,
2013-02-12 07:40:00,32.5,29.6,30.32,ENE,60,0.0,0.0,89,0.00,,SKC,0.00,VWS V14.01,2013-02-12 15:40:00,
2013-02-12 07:45:00,32.7,29.8,30.32,ENE,60,0.0,0.0,89,0.00,,SKC,0.00,VWS V14.01,2013-02-12 15:45:00,
2013-02-12 07:55:00,33.1,30.2,30.33,ENE,60,0.0,0.0,89,0.00,,SKC,0.00,VWS V14.01,2013-02-12 15:55:00,
2013-02-12 08:00:00,33.5,30.6,30.33,ENE,60,0.0,0.0,89,0.00,,SKC,0.00,VWS V14.01,2013-02-12 16:00:00,
2013-02-12 08:09:00,34.5,31.9,30.33,ENE,60,0.0,0.0,90,0.00,,SKC,0.00,VWS V14.01,2013-02-12 16:09:00,
2013-02-12 08:15:00,35.1,32.5,30.34,ENE,60,0.0,0.0,90,0.00,,SKC,0.00,VWS V14.01,2013-02-12 16:15:00,
2013-02-12 08:25:00,36.4,33.5,30.34,ENE,60,0.0,0.0,89,0.00,,SKC,0.00,VWS V14.01,2013-02-12 16:25:00,
2013-02-12 08:30:00,37.5,34.6,30.34,ENE,60,0.0,0.0,89,0.00,,SKC,0.00,VWS V14.01,2013-02-12 16:30:00,
2013-02-12 08:35:00,39.3,35.2,30.34,ENE,60,0.0,0.0,85,0.00,,SKC,0.00,VWS V14.01,2013-02-12 16:35:00,
2013-02-12 08:40:00,41.4,36.6,30.34,ENE,60,0.0,0.0,83,0.00,,SKC,0.00,VWS V14.01,2013-02-12 16:40:00,
2013-02-12 08:45:00,43.5,36.8,30.34,ENE,60,0.0,0.0,77,0.00,,SKC,0.00,VWS V14.01,2013-02-12 16:45:00,
2013-02-12 08:54:00,46.5,37.3,30.34,ENE,60,0.0,0.0,70,0.00,,SKC,0.00,VWS V14.01,2013-02-12 16:54:00,
2013-02-12 08:59:00,47.4,37.4,30.34,ENE,60,0.0,1.0,68,0.00,,SKC,0.00,VWS V14.01,2013-02-12 16:59:00,
2013-02-12 09:04:00,47.8,37.4,30.34,ENE,60,0.0,0.0,67,0.00,,SKC,0.00,VWS V14.01,2013-02-12 17:04:00,
2013-02-12 09:10:00,48.0,38.0,30.35,ENE,59,2.0,2.0,68,0.00,,SKC,0.00,VWS V14.01,2013-02-12 17:10:00,
2013-02-12 09:15:00,47.8,37.4,30.35,NNW,333,0.0,4.0,67,0.00,,SKC,0.00,VWS V14.01,2013-02-12 17:15:00,
2013-02-12 09:20:00,48.4,38.3,30.35,West,267,2.0,5.0,68,0.00,,SKC,0.00,VWS V14.01,2013-02-12 17:20:00,
2013-02-12 09:25:00,49.0,38.5,30.35,West,271,0.0,4.0,67,0.00,,SKC,0.00,VWS V14.01,2013-02-12 17:25:00,
2013-02-12 09:30:00,49.6,38.7,30.35,West,271,0.0,1.0,66,0.00,,SKC,0.00,VWS V14.01,2013-02-12 17:30:00,
2013-02-12 09:35:00,49.8,38.5,30.35,West,271,0.0,2.0,65,0.00,,SKC,0.00,VWS V14.01,2013-02-12 17:35:00,
2013-02-12 09:40:00,49.6,38.7,30.35,WNW,294,0.0,4.0,66,0.00,,SKC,0.00,VWS V14.01,2013-02-12 17:40:00,
2013-02-12 09:45:00,50.5,39.2,30.35,WNW,286,0.0,5.0,65,0.00,,SKC,0.00,VWS V14.01,2013-02-12 17:45:00,
2013-02-12 09:50:00,51.6,40.2,30.35,WNW,286,0.0,2.0,65,0.00,,SKC,0.00,VWS V14.01,2013-02-12 17:50:00,
2013-02-12 09:55:00,52.7,40.5,30.35,WNW,286,0.0,2.0,63,0.00,,SKC,0.00,VWS V14.01,2013-02-12 17:55:00,
2013-02-12 10:00:00,53.6,40.5,30.35,WNW,286,0.0,0.0,61,0.00,,SKC,0.00,VWS V14.01,2013-02-12 18:00:00,
2013-02-12 10:05:00,53.6,40.9,30.35,WNW,286,0.0,3.0,62,0.00,,SKC,0.00,VWS V14.01,2013-02-12 18:05:00,
2013-02-12 10:10:00,53.6,40.9,30.35,WNW,286,0.0,2.0,62,0.00,,SKC,0.00,VWS V14.01,2013-02-12 18:10:00,
2013-02-12 10:19:00,54.2,41.9,30.35,WNW,286,1.0,1.0,63,0.00,,SKC,0.00,VWS V14.01,2013-02-12 18:19:00,
2013-02-12 10:25:00,53.9,42.0,30.35,West,262,0.0,4.0,64,0.00,,SKC,0.00,VWS V14.01,2013-02-12 18:25:00,
2013-02-12 10:34:00,55.0,43.1,30.35,West,263,2.0,2.0,64,0.00,,SKC,0.00,VWS V14.01,2013-02-12 18:34:00,
2013-02-12 10:40:00,55.5,43.1,30.35,West,267,0.0,4.0,63,0.00,,SKC,0.00,VWS V14.01,2013-02-12 18:40:00,
2013-02-12 10:45:00,56.0,43.6,30.35,WNW,286,2.0,4.0,63,0.00,,SKC,0.00,VWS V14.01,2013-02-12 18:45:00,
2013-02-12 10:55:00,57.1,44.2,30.35,WNW,287,0.0,4.0,62,0.00,,SKC,0.00,VWS V14.01,2013-02-12 18:55:00,
2013-02-12 11:05:00,57.6,43.4,30.35,NNW,342,2.0,5.0,59,0.00,,SKC,0.00,VWS V14.01,2013-02-12 19:05:00,
2013-02-12 11:10:00,58.1,43.9,30.35,NNE,14,5.0,5.0,59,0.00,,SKC,0.00,VWS V14.01,2013-02-12 19:10:00,
2013-02-12 11:15:00,58.1,43.4,30.34,NNE,30,4.0,5.0,58,0.00,,SKC,0.00,VWS V14.01,2013-02-12 19:15:00,
2013-02-12 11:20:00,57.6,43.4,30.34,NNE,12,6.0,6.0,59,0.00,,SKC,0.00,VWS V14.01,2013-02-12 19:20:00,
2013-02-12 11:25:00,57.6,43.4,30.34,NNE,25,2.0,6.0,59,0.00,,SKC,0.00,VWS V14.01,2013-02-12 19:25:00,
2013-02-12 11:35:00,58.5,43.8,30.34,NE,35,1.0,7.0,58,0.00,,SKC,0.00,VWS V14.01,2013-02-12 19:35:00,
2013-02-12 11:40:00,59.0,43.3,30.34,NNE,15,2.0,8.0,56,0.00,,SKC,0.00,VWS V14.01,2013-02-12 19:40:00,
2013-02-12 11:45:00,58.8,43.6,30.34,SE,143,3.0,6.0,57,0.00,,SKC,0.00,VWS V14.01,2013-02-12 19:45:00,
2013-02-12 11:50:00,59.0,43.8,30.34,North,11,0.0,6.0,57,0.00,,SKC,0.00,VWS V14.01,2013-02-12 19:50:00,
2013-02-12 12:00:00,59.0,43.3,30.33,NNE,26,6.0,7.0,56,0.00,,SKC,0.00,VWS V14.01,2013-02-12 20:00:00,
2013-02-12 12:05:00,58.6,43.0,30.33,NNE,29,7.0,7.0,56,0.00,,SKC,0.00,VWS V14.01,2013-02-12 20:05:00,
2013-02-12 12:10:00,58.6,43.0,30.33,NNE,21,5.0,8.0,56,0.00,,SKC,0.00,VWS V14.01,2013-02-12 20:10:00,
2013-02-12 12:15:00,59.0,42.9,30.33,North,355,2.0,6.0,55,0.00,,SKC,0.00,VWS V14.01,2013-02-12 20:15:00,
2013-02-12 12:20:00,59.6,43.0,30.33,NNE,29,4.0,6.0,54,0.00,,SKC,0.00,VWS V14.01,2013-02-12 20:20:00,
2013-02-12 12:25:00,59.7,42.6,30.32,NNE,24,1.0,7.0,53,0.00,,SKC,0.00,VWS V14.01,2013-02-12 20:25:00,
2013-02-12 12:30:00,59.7,43.0,30.32,North,349,4.0,7.0,54,0.00,,SKC,0.00,VWS V14.01,2013-02-12 20:30:00,
2013-02-12 12:35:00,59.7,42.6,30.32,NNE,13,1.0,8.0,53,0.00,,SKC,0.00,VWS V14.01,2013-02-12 20:35:00,
2013-02-12 12:45:00,60.0,42.3,30.32,NE,53,2.0,7.0,52,0.00,,SKC,0.00,VWS V14.01,2013-02-12 20:45:00,
2013-02-12 12:50:00,60.5,42.8,30.32,NNE,21,5.0,6.0,52,0.00,,SKC,0.00,VWS V14.01,2013-02-12 20:50:00,
2013-02-12 12:55:00,61.2,43.5,30.32,NNE,14,2.0,7.0,52,0.00,,SKC,0.00,VWS V14.01,2013-02-12 20:55:00,
2013-02-12 13:00:00,61.4,42.6,30.32,North,5,2.0,8.0,50,0.00,,SKC,0.00,VWS V14.01,2013-02-12 21:00:00,
2013-02-12 13:10:00,60.7,42.5,30.31,North,9,1.0,10.0,51,0.00,,SKC,0.00,VWS V14.01,2013-02-12 21:10:00,
2013-02-12 13:15:00,60.5,42.3,30.31,NNW,346,6.0,9.0,51,0.00,,SKC,0.00,VWS V14.01,2013-02-12 21:15:00,
2013-02-12 13:20:00,60.6,41.9,30.31,NNE,30,8.0,9.0,50,0.00,,SKC,0.00,VWS V14.01,2013-02-12 21:20:00,
2013-02-12 13:25:00,60.8,42.6,30.31,North,5,5.0,8.0,51,0.00,,SKC,0.00,VWS V14.01,2013-02-12 21:25:00,
2013-02-12 13:30:00,61.2,41.9,30.31,NNE,24,1.0,6.0,49,0.00,,SKC,0.00,VWS V14.01,2013-02-12 21:30:00,
2013-02-12 13:35:00,61.5,42.2,30.30,NE,39,7.0,7.0,49,0.00,,SKC,0.00,VWS V14.01,2013-02-12 21:35:00,
2013-02-12 13:40:00,61.8,41.4,30.30,West,281,1.0,7.0,47,0.00,,SKC,0.00,VWS V14.01,2013-02-12 21:40:00,
2013-02-12 13:45:00,62.2,41.7,30.30,NNE,14,3.0,8.0,47,0.00,,SKC,0.00,VWS V14.01,2013-02-12 21:45:00,
2013-02-12 13:50:00,61.9,41.5,30.30,NNE,12,0.0,9.0,47,0.00,,SKC,0.00,VWS V14.01,2013-02-12 21:50:00,
2013-02-12 13:55:00,61.6,41.2,30.30,NNE,26,4.0,8.0,47,0.00,,SKC,0.00,VWS V14.01,2013-02-12 21:55:00,
2013-02-12 14:00:00,61.2,40.8,30.30,North,5,2.0,9.0,47,0.00,,SKC,0.00,VWS V14.01,2013-02-12 22:00:00,
2013-02-12 14:05:00,60.9,40.5,30.30,North,355,0.0,5.0,47,0.00,,SKC,0.00,VWS V14.01,2013-02-12 22:05:00,
2013-02-12 14:10:00,61.1,40.7,30.29,North,11,1.0,9.0,47,0.00,,SKC,0.00,VWS V14.01,2013-02-12 22:10:00,
2013-02-12 14:15:00,61.1,40.7,30.30,NNW,333,2.0,6.0,47,0.00,,SKC,0.00,VWS V14.01,2013-02-12 22:15:00,
2013-02-12 14:20:00,61.1,40.7,30.29,NNE,32,0.0,8.0,47,0.00,,SKC,0.00,VWS V14.01,2013-02-12 22:20:00,
2013-02-12 14:25:00,61.2,40.8,30.29,NNW,340,2.0,6.0,47,0.00,,SKC,0.00,VWS V14.01,2013-02-12 22:25:00,
2013-02-12 14:30:00,61.3,41.5,30.29,NNE,12,1.0,7.0,48,0.00,,SKC,0.00,VWS V14.01,2013-02-12 22:30:00,
2013-02-12 14:35:00,61.2,40.3,30.30,North,360,6.0,9.0,46,0.00,,SKC,0.00,VWS V14.01,2013-02-12 22:35:00,
2013-02-12 14:40:00,60.9,40.5,30.29,NNE,13,6.0,7.0,47,0.00,,SKC,0.00,VWS V14.01,2013-02-12 22:40:00,
2013-02-12 14:45:00,60.4,40.6,30.29,NNW,348,0.0,7.0,48,0.00,,SKC,0.00,VWS V14.01,2013-02-12 22:45:00,
2013-02-12 14:50:00,60.4,39.5,30.29,NNE,30,0.0,7.0,46,0.00,,SKC,0.00,VWS V14.01,2013-02-12 22:50:00,
2013-02-12 14:55:00,60.6,39.2,30.29,NNE,24,6.0,8.0,45,0.00,,SKC,0.00,VWS V14.01,2013-02-12 22:55:00,
2013-02-12 15:00:00,60.6,39.2,30.29,WNW,283,1.0,6.0,45,0.00,,SKC,0.00,VWS V14.01,2013-02-12 23:00:00,
2013-02-12 15:05:00,60.5,39.6,30.29,NE,46,1.0,8.0,46,0.00,,SKC,0.00,VWS V14.01,2013-02-12 23:05:00,
2013-02-12 15:15:00,60.2,39.4,30.29,NNE,30,7.0,9.0,46,0.00,,SKC,0.00,VWS V14.01,2013-02-12 23:15:00,
2013-02-12 15:20:00,60.1,38.1,30.29,NNE,25,2.0,7.0,44,0.00,,SKC,0.00,VWS V14.01,2013-02-12 23:20:00,
2013-02-12 15:25:00,60.1,39.8,30.29,North,5,2.0,5.0,47,0.00,,SKC,0.00,VWS V14.01,2013-02-12 23:25:00,
2013-02-12 15:30:00,60.0,39.7,30.29,ENE,59,0.0,5.0,47,0.00,,SKC,0.00,VWS V14.01,2013-02-12 23:30:00,
2013-02-12 15:35:00,60.1,40.4,30.29,NE,43,4.0,6.0,48,0.00,,SKC,0.00,VWS V14.01,2013-02-12 23:35:00,
2013-02-12 15:40:00,60.1,40.4,30.29,NNE,32,2.0,5.0,48,0.00,,SKC,0.00,VWS V14.01,2013-02-12 23:40:00,
2013-02-12 15:50:00,59.9,39.6,30.29,NNE,22,4.0,7.0,47,0.00,,SKC,0.00,VWS V14.01,2013-02-12 23:50:00,
2013-02-12 15:55:00,59.8,39.5,30.29,NNE,26,1.0,6.0,47,0.00,,SKC,0.00,VWS V14.01,2013-02-12 23:55:00,
2013-02-12 16:00:00,59.8,40.1,30.29,NNE,21,1.0,7.0,48,0.00,,SKC,0.00,VWS V14.01,2013-02-13 00:00:00,
2013-02-12 16:05:00,59.5,39.8,30.29,NE,51,2.0,5.0,48,0.00,,SKC,0.00,VWS V14.01,2013-02-13 00:05:00,
2013-02-12 16:10:00,59.3,39.6,30.29,NNE,23,2.0,6.0,48,0.00,,SKC,0.00,VWS V14.01,2013-02-13 00:10:00,
2013-02-12 16:15:00,59.0,39.9,30.28,NNE,22,0.0,6.0,49,0.00,,SKC,0.00,VWS V14.01,2013-02-13 00:15:00,
2013-02-12 16:20:00,59.0,40.4,30.28,NNE,29,1.0,4.0,50,0.00,,SKC,0.00,VWS V14.01,2013-02-13 00:20:00,
2013-02-12 16:25:00,59.0,39.9,30.28,NNE,32,0.0,4.0,49,0.00,,SKC,0.00,VWS V14.01,2013-02-13 00:25:00,
2013-02-12 16:30:00,59.0,39.9,30.28,NNE,24,0.0,4.0,49,0.00,,SKC,0.00,VWS V14.01,2013-02-13 00:30:00,
2013-02-12 16:35:00,59.0,40.9,30.28,NNE,22,1.0,5.0,51,0.00,,SKC,0.00,VWS V14.01,2013-02-13 00:35:00,
2013-02-12 16:40:00,58.7,41.1,30.28,North,350,2.0,5.0,52,0.00,,SKC,0.00,VWS V14.01,2013-02-13 00:40:00,
2013-02-12 16:45:00,58.4,40.9,30.28,NNE,16,0.0,5.0,52,0.00,,SKC,0.00,VWS V14.01,2013-02-13 00:45:00,
2013-02-12 16:50:00,58.4,40.9,30.28,North,5,2.0,5.0,52,0.00,,SKC,0.00,VWS V14.01,2013-02-13 00:50:00,
2013-02-12 16:55:00,58.2,40.2,30.28,NNE,19,0.0,5.0,51,0.00,,SKC,0.00,VWS V14.01,2013-02-13 00:55:00,
2013-02-12 17:00:00,58.1,40.6,30.28,NNE,18,2.0,4.0,52,0.00,,SKC,0.00,VWS V14.01,2013-02-13 01:00:00,
2013-02-12 17:05:00,57.9,40.9,30.28,NNE,13,1.0,4.0,53,0.00,,SKC,0.00,VWS V14.01,2013-02-13 01:05:00,
2013-02-12 17:10:00,57.6,41.1,30.28,NNE,13,0.0,3.0,54,0.00,,SKC,0.00,VWS V14.01,2013-02-13 01:10:00,
2013-02-12 17:15:00,57.2,40.7,30.28,NNE,13,1.0,4.0,54,0.00,,SKC,0.00,VWS V14.01,2013-02-13 01:15:00,
2013-02-12 17:20:00,56.8,40.3,30.28,NNE,13,0.0,4.0,54,0.00,,SKC,0.00,VWS V14.01,2013-02-13 01:20:00,
2013-02-12 17:25:00,56.2,40.7,30.28,NNE,13,0.0,2.0,56,0.00,,SKC,0.00,VWS V14.01,2013-02-13 01:25:00,
2013-02-12 17:30:00,55.8,40.4,30.29,NNE,13,0.0,1.0,56,0.00,,SKC,0.00,VWS V14.01,2013-02-13 01:30:00,
2013-02-12 17:35:00,55.3,40.3,30.29,NNE,13,2.0,2.0,57,0.00,,SKC,0.00,VWS V14.01,2013-02-13 01:35:00,
2013-02-12 17:40:00,54.9,40.4,30.28,NNE,13,0.0,3.0,58,0.00,,SKC,0.00,VWS V14.01,2013-02-13 01:40:00,
2013-02-12 17:45:00,54.5,40.5,30.28,NNE,13,0.0,1.0,59,0.00,,SKC,0.00,VWS V14.01,2013-02-13 01:45:00,
2013-02-12 17:50:00,54.0,40.0,30.28,NNE,13,0.0,0.0,59,0.00,,SKC,0.00,VWS V14.01,2013-02-13 01:50:00,
2013-02-12 17:55:00,53.5,40.0,30.29,NNE,13,0.0,0.0,60,0.00,,SKC,0.00,VWS V14.01,2013-02-13 01:55:00,
2013-02-12 18:00:00,52.9,39.8,30.29,NNE,13,0.0,0.0,61,0.00,,SKC,0.00,VWS V14.01,2013-02-13 02:00:00,
2013-02-12 18:05:00,52.3,39.7,30.29,NNE,13,0.0,0.0,62,0.00,,SKC,0.00,VWS V14.01,2013-02-13 02:05:00,
2013-02-12 18:10:00,51.8,39.2,30.29,NNE,13,0.0,0.0,62,0.00,,SKC,0.00,VWS V14.01,2013-02-13 02:10:00,
2013-02-12 18:15:00,51.3,39.5,30.29,NNE,13,0.0,0.0,64,0.00,,SKC,0.00,VWS V14.01,2013-02-13 02:15:00,
2013-02-12 18:20:00,50.7,39.0,30.29,NNE,13,0.0,0.0,64,0.00,,SKC,0.00,VWS V14.01,2013-02-13 02:20:00,
2013-02-12 18:25:00,50.1,38.8,30.29,NNE,13,0.0,0.0,65,0.00,,SKC,0.00,VWS V14.01,2013-02-13 02:25:00,
2013-02-12 18:30:00,49.5,38.6,30.29,NNE,13,0.0,0.0,66,0.00,,SKC,0.00,VWS V14.01,2013-02-13 02:30:00,
2013-02-12 18:35:00,48.8,38.3,30.29,NNE,13,0.0,0.0,67,0.00,,SKC,0.00,VWS V14.01,2013-02-13 02:35:00,
2013-02-12 18:40:00,48.3,37.9,30.29,NNE,13,0.0,0.0,67,0.00,,SKC,0.00,VWS V14.01,2013-02-13 02:40:00,
2013-02-12 18:45:00,47.7,37.7,30.29,NNE,13,0.0,0.0,68,0.00,,SKC,0.00,VWS V14.01,2013-02-13 02:45:00,
2013-02-12 18:50:00,47.1,37.5,30.29,NNE,13,0.0,0.0,69,0.00,,SKC,0.00,VWS V14.01,2013-02-13 02:50:00,
2013-02-12 19:00:00,46.3,37.4,30.29,NNE,13,0.0,0.0,71,0.00,,SKC,0.00,VWS V14.01,2013-02-13 03:00:00,
2013-02-12 19:10:00,45.5,37.0,30.29,NNE,13,0.0,0.0,72,0.00,,SKC,0.00,VWS V14.01,2013-02-13 03:10:00,
2013-02-12 19:15:00,45.1,36.6,30.29,NNE,13,0.0,0.0,72,0.00,,SKC,0.00,VWS V14.01,2013-02-13 03:15:00,
2013-02-12 19:20:00,44.9,36.8,30.29,NNE,13,0.0,0.0,73,0.00,,SKC,0.00,VWS V14.01,2013-02-13 03:20:00,
2013-02-12 19:25:00,44.6,36.8,30.30,NNE,13,0.0,0.0,74,0.00,,SKC,0.00,VWS V14.01,2013-02-13 03:25:00,
2013-02-12 19:30:00,44.5,36.7,30.30,NNE,13,0.0,0.0,74,0.00,,SKC,0.00,VWS V14.01,2013-02-13 03:30:00,
2013-02-12 19:40:00,43.9,36.2,30.30,NNE,13,0.0,0.0,74,0.00,,SKC,0.00,VWS V14.01,2013-02-13 03:40:00,
2013-02-12 19:45:00,43.6,35.9,30.30,NNE,13,0.0,0.0,74,0.00,,SKC,0.00,VWS V14.01,2013-02-13 03:45:00,
2013-02-12 19:50:00,43.4,36.0,30.30,NNE,13,0.0,0.0,75,0.00,,SKC,0.00,VWS V14.01,2013-02-13 03:50:00,
2013-02-12 19:55:00,43.3,35.9,30.30,NNE,13,0.0,0.0,75,0.00,,SKC,0.00,VWS V14.01,2013-02-13 03:55:00,
2013-02-12 20:00:00,42.9,35.5,30.30,NNE,13,0.0,0.0,75,0.00,,SKC,0.00,VWS V14.01,2013-02-13 04:00:00,
2013-02-12 20:10:00,42.4,35.4,30.29,NNE,13,0.0,0.0,76,0.00,,SKC,0.00,VWS V14.01,2013-02-13 04:10:00,
2013-02-12 20:15:00,42.1,35.1,30.29,NNE,13,2.0,2.0,76,0.00,,SKC,0.00,VWS V14.01,2013-02-13 04:15:00,
2013-02-12 20:20:00,41.8,35.1,30.29,NNE,13,0.0,2.0,77,0.00,,SKC,0.00,VWS V14.01,2013-02-13 04:20:00,
2013-02-12 20:25:00,41.6,34.9,30.29,NNE,13,0.0,0.0,77,0.00,,SKC,0.00,VWS V14.01,2013-02-13 04:25:00,
2013-02-12 20:30:00,41.3,34.7,30.29,NNE,13,0.0,0.0,77,0.00,,SKC,0.00,VWS V14.01,2013-02-13 04:30:00,
2013-02-12 20:35:00,41.1,34.8,30.30,NNE,13,0.0,0.0,78,0.00,,SKC,0.00,VWS V14.01,2013-02-13 04:35:00,
2013-02-12 20:40:00,41.0,34.7,30.30,NNE,13,0.0,1.0,78,0.00,,SKC,0.00,VWS V14.01,2013-02-13 04:40:00,
2013-02-12 20:45:00,41.0,35.0,30.30,NNE,13,0.0,0.0,79,0.00,,SKC,0.00,VWS V14.01,2013-02-13 04:45:00,
2013-02-12 20:50:00,40.9,34.9,30.30,NNE,13,0.0,0.0,79,0.00,,SKC,0.00,VWS V14.01,2013-02-13 04:50:00,
2013-02-12 20:55:00,40.7,34.7,30.30,NNE,13,0.0,1.0,79,0.00,,SKC,0.00,VWS V14.01,2013-02-13 04:55:00,
2013-02-12 21:00:00,40.6,34.6,30.30,NNE,13,0.0,0.0,79,0.00,,SKC,0.00,VWS V14.01,2013-02-13 05:00:00,
2013-02-12 21:05:00,40.5,34.5,30.30,NNE,13,0.0,0.0,79,0.00,,SKC,0.00,VWS V14.01,2013-02-13 05:05:00,
2013-02-12 21:10:00,40.3,34.3,30.30,NNE,13,0.0,0.0,79,0.00,,SKC,0.00,VWS V14.01,2013-02-13 05:10:00,
2013-02-12 21:15:00,40.1,34.4,30.30,NNE,13,0.0,1.0,80,0.00,,SKC,0.00,VWS V14.01,2013-02-13 05:15:00,
2013-02-12 21:20:00,40.1,34.4,30.30,NNE,13,0.0,0.0,80,0.00,,SKC,0.00,VWS V14.01,2013-02-13 05:20:00,
2013-02-12 21:25:00,40.0,34.7,30.30,NNE,13,0.0,0.0,81,0.00,,SKC,0.00,VWS V14.01,2013-02-13 05:25:00,
2013-02-12 21:30:00,40.1,34.8,30.30,NNE,13,0.0,0.0,81,0.00,,SKC,0.00,VWS V14.01,2013-02-13 05:30:00,
2013-02-12 21:35:00,40.1,34.8,30.30,NNE,13,0.0,0.0,81,0.00,,SKC,0.00,VWS V14.01,2013-02-13 05:35:00,
2013-02-12 21:40:00,40.1,34.8,30.31,NNE,13,0.0,0.0,81,0.00,,SKC,0.00,VWS V14.01,2013-02-13 05:40:00,
2013-02-12 21:45:00,40.0,34.7,30.31,NNE,13,0.0,0.0,81,0.00,,SKC,0.00,VWS V14.01,2013-02-13 05:45:00,
2013-02-12 21:50:00,39.8,34.5,30.31,NNE,13,0.0,0.0,81,0.00,,SKC,0.00,VWS V14.01,2013-02-13 05:50:00,
2013-02-12 21:55:00,39.7,34.4,30.31,NNE,13,0.0,1.0,81,0.00,,SKC,0.00,VWS V14.01,2013-02-13 05:55:00,
2013-02-12 22:00:00,39.6,34.3,30.30,NNE,13,1.0,1.0,81,0.00,,SKC,0.00,VWS V14.01,2013-02-13 06:00:00,
2013-02-12 22:10:00,39.4,34.4,30.30,NNE,13,0.0,0.0,82,0.00,,SKC,0.00,VWS V14.01,2013-02-13 06:10:00,
2013-02-12 22:15:00,39.3,34.3,30.30,NNE,13,0.0,0.0,82,0.00,,SKC,0.00,VWS V14.01,2013-02-13 06:15:00,
2013-02-12 22:20:00,39.3,34.3,30.31,NNE,13,0.0,0.0,82,0.00,,SKC,0.00,VWS V14.01,2013-02-13 06:20:00,
2013-02-12 22:25:00,39.3,34.3,30.30,NNE,13,0.0,0.0,82,0.00,,SKC,0.00,VWS V14.01,2013-02-13 06:25:00,
2013-02-12 22:30:00,39.3,34.6,30.31,NNE,13,0.0,0.0,83,0.00,,SKC,0.00,VWS V14.01,2013-02-13 06:30:00,
2013-02-12 22:35:00,39.4,34.7,30.31,NNE,13,0.0,1.0,83,0.00,,SKC,0.00,VWS V14.01,2013-02-13 06:35:00,
2013-02-12 22:40:00,39.5,34.8,30.31,NNE,13,0.0,1.0,83,0.00,,SKC,0.00,VWS V14.01,2013-02-13 06:40:00,
2013-02-12 22:50:00,39.5,34.5,30.31,NNE,13,0.0,0.0,82,0.00,,SKC,0.00,VWS V14.01,2013-02-13 06:50:00,
2013-02-12 22:55:00,39.5,34.5,30.31,NNE,13,0.0,1.0,82,0.00,,SKC,0.00,VWS V14.01,2013-02-13 06:55:00,
2013-02-12 23:00:00,39.3,34.3,30.31,NNE,13,0.0,0.0,82,0.00,,SKC,0.00,VWS V14.01,2013-02-13 07:00:00,
2013-02-12 23:05:00,39.2,34.2,30.31,NNE,13,0.0,1.0,82,0.00,,SKC,0.00,VWS V14.01,2013-02-13 07:05:00,
2013-02-12 23:10:00,39.1,34.1,30.31,NNE,13,0.0,0.0,82,0.00,,SKC,0.00,VWS V14.01,2013-02-13 07:10:00,
2013-02-12 23:15:00,39.0,34.3,30.31,NNE,13,0.0,0.0,83,0.00,,SKC,0.00,VWS V14.01,2013-02-13 07:15:00,
2013-02-12 23:20:00,38.9,34.2,30.31,NNE,13,0.0,0.0,83,0.00,,SKC,0.00,VWS V14.01,2013-02-13 07:20:00,
2013-02-12 23:25:00,38.9,34.2,30.31,NNE,13,0.0,0.0,83,0.00,,SKC,0.00,VWS V14.01,2013-02-13 07:25:00,
2013-02-12 23:30:00,38.9,34.5,30.31,NNE,13,0.0,0.0,84,0.00,,SKC,0.00,VWS V14.01,2013-02-13 07:30:00,
2013-02-12 23:35:00,38.9,34.2,30.31,NNE,13,0.0,1.0,83,0.00,,SKC,0.00,VWS V14.01,2013-02-13 07:35:00,
2013-02-12 23:40:00,38.8,34.1,30.31,NNE,13,0.0,0.0,83,0.00,,SKC,0.00,VWS V14.01,2013-02-13 07:40:00,
2013-02-12 23:45:00,38.9,34.5,30.31,NNE,13,0.0,2.0,84,0.00,,SKC,0.00,VWS V14.01,2013-02-13 07:45:00,
2013-02-12 23:50:00,38.9,34.5,30.31,NNE,13,0.0,2.0,84,0.00,,SKC,0.00,VWS V14.01,2013-02-13 07:50:00,
2013-02-12 23:55:00,39.2,35.1,30.31,NNE,13,0.0,3.0,85,0.00,,SKC,0.00,VWS V14.01,2013-02-13 07:55:00,